sensor_id;sensor_type;location;lat;lon;timestamp;temperature;humidity
40816;DHT22;26535;48.788;9.214;2023-02-28T00:00:33;-0.90;90.10
40816;DHT22;26535;48.788;9.214;2023-02-28T00:02:59;-0.90;90.10
40816;DHT22;26535;48.788;9.214;2023-02-28T00:05:28;-1.00;90.20
40816;DHT22;26535;48.788;9.214;2023-02-28T00:07:56;-1.00;90.20
40816;DHT22;26535;48.788;9.214;2023-02-28T00:10:25;-0.90;90.00
40816;DHT22;26535;48.788;9.214;2023-02-28T00:12:58;-0.90;90.10
40816;DHT22;26535;48.788;9.214;2023-02-28T00:15:24;-0.90;90.10
40816;DHT22;26535;48.788;9.214;2023-02-28T00:17:50;-1.00;90.30
40816;DHT22;26535;48.788;9.214;2023-02-28T00:20:16;-1.00;90.20
40816;DHT22;26535;48.788;9.214;2023-02-28T00:22:45;-1.00;90.50
40816;DHT22;26535;48.788;9.214;2023-02-28T00:25:13;-1.10;90.60
40816;DHT22;26535;48.788;9.214;2023-02-28T00:27:40;-1.10;90.50
40816;DHT22;26535;48.788;9.214;2023-02-28T00:30:08;-1.20;90.80
40816;DHT22;26535;48.788;9.214;2023-02-28T06:03:32;-0.20;97.80
40816;DHT22;26535;48.788;9.214;2023-02-28T06:05:58;-0.10;97.70
40816;DHT22;26535;48.788;9.214;2023-02-28T06:08:24;-0.10;97.90
40816;DHT22;26535;48.788;9.214;2023-02-28T06:10:49;-0.10;98.00
40816;DHT22;26535;48.788;9.214;2023-02-28T06:13:15;-0.20;98.00
40816;DHT22;26535;48.788;9.214;2023-02-28T06:15:42;-0.10;98.00
40816;DHT22;26535;48.788;9.214;2023-02-28T06:18:07;0.00;97.90
40816;DHT22;26535;48.788;9.214;2023-02-28T06:20:33;0.00;98.00
40816;DHT22;26535;48.788;9.214;2023-02-28T06:22:59;0.00;97.90
40816;DHT22;26535;48.788;9.214;2023-02-28T06:25:26;0.10;97.90
40816;DHT22;26535;48.788;9.214;2023-02-28T06:27:53;0.00;97.80
40816;DHT22;26535;48.788;9.214;2023-02-28T06:30:19;0.00;97.80
40816;DHT22;26535;48.788;9.214;2023-02-28T06:32:49;0.00;97.80
40816;DHT22;26535;48.788;9.214;2023-02-28T06:35:15;0.00;97.70
40816;DHT22;26535;48.788;9.214;2023-02-28T06:37:40;0.00;97.70
40816;DHT22;26535;48.788;9.214;2023-02-28T06:40:08;0.00;97.70
40816;DHT22;26535;48.788;9.214;2023-02-28T06:42:34;0.00;97.70
40816;DHT22;26535;48.788;9.214;2023-02-28T06:45:00;0.10;97.50
40816;DHT22;26535;48.788;9.214;2023-02-28T06:47:30;0.10;97.50
40816;DHT22;26535;48.788;9.214;2023-02-28T06:49:56;0.10;97.50
40816;DHT22;26535;48.788;9.214;2023-02-28T06:52:21;0.20;97.50
40816;DHT22;26535;48.788;9.214;2023-02-28T06:54:47;0.30;97.20
40816;DHT22;26535;48.788;9.214;2023-02-28T06:57:29;0.30;97.20
40816;DHT22;26535;48.788;9.214;2023-02-28T07:00:00;0.30;97.10
40816;DHT22;26535;48.788;9.214;2023-02-28T07:02:27;0.40;97.10
40816;DHT22;26535;48.788;9.214;2023-02-28T07:04:53;0.40;97.10
40816;DHT22;26535;48.788;9.214;2023-02-28T07:07:18;0.40;96.90
40816;DHT22;26535;48.788;9.214;2023-02-28T07:09:44;0.40;97.00
40816;DHT22;26535;48.788;9.214;2023-02-28T07:12:10;0.40;96.90
40816;DHT22;26535;48.788;9.214;2023-02-28T07:14:37;0.50;96.90
40816;DHT22;26535;48.788;9.214;2023-02-28T07:17:03;0.50;96.90
40816;DHT22;26535;48.788;9.214;2023-02-28T07:19:28;0.50;96.60
40816;DHT22;26535;48.788;9.214;2023-02-28T07:21:54;0.50;96.40
40816;DHT22;26535;48.788;9.214;2023-02-28T07:24:20;0.60;96.10
40816;DHT22;26535;48.788;9.214;2023-02-28T07:26:46;0.60;95.90
40816;DHT22;26535;48.788;9.214;2023-02-28T07:29:11;0.70;96.20
40816;DHT22;26535;48.788;9.214;2023-02-28T07:31:37;0.70;96.50
40816;DHT22;26535;48.788;9.214;2023-02-28T07:34:03;0.80;96.00
40816;DHT22;26535;48.788;9.214;2023-02-28T07:36:28;0.90;95.60
40816;DHT22;26535;48.788;9.214;2023-02-28T07:38:54;0.90;95.30
40816;DHT22;26535;48.788;9.214;2023-02-28T07:41:21;1.00;95.10
40816;DHT22;26535;48.788;9.214;2023-02-28T07:43:47;1.00;94.60
40816;DHT22;26535;48.788;9.214;2023-02-28T07:46:15;1.00;94.80
40816;DHT22;26535;48.788;9.214;2023-02-28T07:48:42;1.00;94.20
40816;DHT22;26535;48.788;9.214;2023-02-28T07:51:08;1.00;94.50
40816;DHT22;26535;48.788;9.214;2023-02-28T07:53:34;1.10;94.40
40816;DHT22;26535;48.788;9.214;2023-02-28T07:56:01;1.10;94.80
40816;DHT22;26535;48.788;9.214;2023-02-28T07:58:28;1.10;93.70
40816;DHT22;26535;48.788;9.214;2023-02-28T08:00:55;1.10;93.90
40816;DHT22;26535;48.788;9.214;2023-02-28T08:03:22;1.20;94.30
40816;DHT22;26535;48.788;9.214;2023-02-28T08:05:48;1.30;94.10
40816;DHT22;26535;48.788;9.214;2023-02-28T08:08:15;1.40;94.00
40816;DHT22;26535;48.788;9.214;2023-02-28T08:10:41;1.50;93.40
40816;DHT22;26535;48.788;9.214;2023-02-28T08:13:07;1.50;93.50
40816;DHT22;26535;48.788;9.214;2023-02-28T08:15:33;1.40;93.80
40816;DHT22;26535;48.788;9.214;2023-02-28T08:17:59;1.40;93.00
40816;DHT22;26535;48.788;9.214;2023-02-28T08:20:26;1.50;93.70
40816;DHT22;26535;48.788;9.214;2023-02-28T08:22:52;1.60;93.40
40816;DHT22;26535;48.788;9.214;2023-02-28T08:25:18;1.60;92.80
40816;DHT22;26535;48.788;9.214;2023-02-28T08:27:44;1.60;93.20
40816;DHT22;26535;48.788;9.214;2023-02-28T08:30:11;1.70;92.70
40816;DHT22;26535;48.788;9.214;2023-02-28T08:32:37;1.70;92.70
40816;DHT22;26535;48.788;9.214;2023-02-28T08:35:03;1.70;92.90
40816;DHT22;26535;48.788;9.214;2023-02-28T08:37:29;1.70;92.10
40816;DHT22;26535;48.788;9.214;2023-02-28T08:39:55;1.60;92.40
40816;DHT22;26535;48.788;9.214;2023-02-28T08:42:20;1.70;92.80
40816;DHT22;26535;48.788;9.214;2023-02-28T08:44:46;1.70;92.80
40816;DHT22;26535;48.788;9.214;2023-02-28T08:47:12;1.80;92.30
40816;DHT22;26535;48.788;9.214;2023-02-28T08:49:38;1.90;92.90
40816;DHT22;26535;48.788;9.214;2023-02-28T08:52:04;1.90;92.50
40816;DHT22;26535;48.788;9.214;2023-02-28T08:54:29;2.00;92.30
40816;DHT22;26535;48.788;9.214;2023-02-28T08:56:57;2.10;91.90
40816;DHT22;26535;48.788;9.214;2023-02-28T08:59:22;2.00;91.90
40816;DHT22;26535;48.788;9.214;2023-02-28T09:01:48;2.10;92.00
40816;DHT22;26535;48.788;9.214;2023-02-28T09:04:14;2.10;92.00
40816;DHT22;26535;48.788;9.214;2023-02-28T09:06:40;2.10;92.20
40816;DHT22;26535;48.788;9.214;2023-02-28T09:09:06;2.10;91.80
40816;DHT22;26535;48.788;9.214;2023-02-28T09:11:34;2.10;91.80
40816;DHT22;26535;48.788;9.214;2023-02-28T09:14:01;2.20;91.80
40816;DHT22;26535;48.788;9.214;2023-02-28T09:16:30;2.30;91.40
40816;DHT22;26535;48.788;9.214;2023-02-28T09:18:56;2.40;91.70
40816;DHT22;26535;48.788;9.214;2023-02-28T09:21:22;2.50;91.90
40816;DHT22;26535;48.788;9.214;2023-02-28T09:23:50;2.60;91.30
40816;DHT22;26535;48.788;9.214;2023-02-28T09:26:18;2.60;90.60
40816;DHT22;26535;48.788;9.214;2023-02-28T09:28:44;2.70;91.20
40816;DHT22;26535;48.788;9.214;2023-02-28T09:31:24;2.70;90.30
40816;DHT22;26535;48.788;9.214;2023-02-28T09:33:52;2.70;90.50
40816;DHT22;26535;48.788;9.214;2023-02-28T09:36:18;2.80;90.50
40816;DHT22;26535;48.788;9.214;2023-02-28T09:38:45;2.90;90.70
40816;DHT22;26535;48.788;9.214;2023-02-28T09:41:39;3.00;90.30
40816;DHT22;26535;48.788;9.214;2023-02-28T09:44:20;3.20;89.70
40816;DHT22;26535;48.788;9.214;2023-02-28T09:46:51;3.10;89.30
40816;DHT22;26535;48.788;9.214;2023-02-28T09:49:25;3.00;90.00
40816;DHT22;26535;48.788;9.214;2023-02-28T09:51:58;3.20;90.10
40816;DHT22;26535;48.788;9.214;2023-02-28T09:54:28;3.40;89.50
40816;DHT22;26535;48.788;9.214;2023-02-28T09:57:08;3.50;89.40
40816;DHT22;26535;48.788;9.214;2023-02-28T10:05:12;3.90;89.30
40816;DHT22;26535;48.788;9.214;2023-02-28T10:07:54;4.00;86.80
40816;DHT22;26535;48.788;9.214;2023-02-28T10:10:29;3.90;87.30
40816;DHT22;26535;48.788;9.214;2023-02-28T10:12:58;3.90;87.30
40816;DHT22;26535;48.788;9.214;2023-02-28T10:15:29;4.00;87.30
40816;DHT22;26535;48.788;9.214;2023-02-28T10:18:00;4.00;88.20
40816;DHT22;26535;48.788;9.214;2023-02-28T10:20:31;4.20;87.00
40816;DHT22;26535;48.788;9.214;2023-02-28T10:23:04;4.30;85.70
40816;DHT22;26535;48.788;9.214;2023-02-28T10:25:35;4.30;86.00
40816;DHT22;26535;48.788;9.214;2023-02-28T10:28:11;4.40;86.40
40816;DHT22;26535;48.788;9.214;2023-02-28T10:30:41;4.20;84.60
40816;DHT22;26535;48.788;9.214;2023-02-28T10:33:18;4.30;85.30
40816;DHT22;26535;48.788;9.214;2023-02-28T10:35:45;4.40;85.30
40816;DHT22;26535;48.788;9.214;2023-02-28T10:38:17;4.50;85.00
40816;DHT22;26535;48.788;9.214;2023-02-28T10:40:43;4.70;84.40
40816;DHT22;26535;48.788;9.214;2023-02-28T10:48:44;4.90;82.80
40816;DHT22;26535;48.788;9.214;2023-02-28T10:51:13;4.90;82.40
40816;DHT22;26535;48.788;9.214;2023-02-28T10:53:50;4.70;82.90
40816;DHT22;26535;48.788;9.214;2023-02-28T10:56:21;4.80;82.90
40816;DHT22;26535;48.788;9.214;2023-02-28T11:01:40;5.30;82.20
40816;DHT22;26535;48.788;9.214;2023-02-28T11:07:04;6.20;80.30
40816;DHT22;26535;48.788;9.214;2023-02-28T11:09:36;6.50;79.80
40816;DHT22;26535;48.788;9.214;2023-02-28T11:12:19;6.70;77.90
40816;DHT22;26535;48.788;9.214;2023-02-28T11:14:58;6.90;77.00
40816;DHT22;26535;48.788;9.214;2023-02-28T11:17:30;7.00;77.10
40816;DHT22;26535;48.788;9.214;2023-02-28T11:20:05;7.60;76.20
40816;DHT22;26535;48.788;9.214;2023-02-28T11:22:37;8.10;76.20
40816;DHT22;26535;48.788;9.214;2023-02-28T11:25:33;8.60;73.00
40816;DHT22;26535;48.788;9.214;2023-02-28T11:28:03;8.90;72.40
40816;DHT22;26535;48.788;9.214;2023-02-28T11:32:57;9.90;68.60
40816;DHT22;26535;48.788;9.214;2023-02-28T11:35:26;10.20;70.00
40816;DHT22;26535;48.788;9.214;2023-02-28T11:37:55;10.70;67.60
40816;DHT22;26535;48.788;9.214;2023-02-28T11:49:10;11.90;64.20
40816;DHT22;26535;48.788;9.214;2023-02-28T11:51:59;11.70;64.30
40816;DHT22;26535;48.788;9.214;2023-02-28T11:57:42;12.20;64.00
40816;DHT22;26535;48.788;9.214;2023-02-28T12:05:28;11.80;63.20
40816;DHT22;26535;48.788;9.214;2023-02-28T12:08:01;10.90;64.10
40816;DHT22;26535;48.788;9.214;2023-02-28T12:13:26;10.10;65.70
40816;DHT22;26535;48.788;9.214;2023-02-28T12:18:51;12.00;65.00
40816;DHT22;26535;48.788;9.214;2023-02-28T12:22:00;12.30;63.00
40816;DHT22;26535;48.788;9.214;2023-02-28T12:24:51;13.30;62.70
40816;DHT22;26535;48.788;9.214;2023-02-28T12:27:24;13.70;60.00
40816;DHT22;26535;48.788;9.214;2023-02-28T12:30:14;13.80;58.70
40816;DHT22;26535;48.788;9.214;2023-02-28T12:32:48;14.20;58.70
40816;DHT22;26535;48.788;9.214;2023-02-28T12:35:24;13.40;59.80
40816;DHT22;26535;48.788;9.214;2023-02-28T12:38:04;14.10;59.30
40816;DHT22;26535;48.788;9.214;2023-02-28T12:40:44;15.00;57.10
40816;DHT22;26535;48.788;9.214;2023-02-28T12:43:13;16.00;56.20
40816;DHT22;26535;48.788;9.214;2023-02-28T12:48:37;16.00;56.40
40816;DHT22;26535;48.788;9.214;2023-02-28T12:51:06;16.90;56.00
40816;DHT22;26535;48.788;9.214;2023-02-28T12:59:04;17.50;53.40
40816;DHT22;26535;48.788;9.214;2023-02-28T13:04:52;17.80;53.20
40816;DHT22;26535;48.788;9.214;2023-02-28T13:07:45;18.10;51.90
40816;DHT22;26535;48.788;9.214;2023-02-28T13:10:16;18.60;51.90
40816;DHT22;26535;48.788;9.214;2023-02-28T13:12:54;18.10;52.10
40816;DHT22;26535;48.788;9.214;2023-02-28T13:15:27;17.80;51.30
40816;DHT22;26535;48.788;9.214;2023-02-28T13:17:58;17.90;52.40
40816;DHT22;26535;48.788;9.214;2023-02-28T13:20:27;18.50;51.40
40816;DHT22;26535;48.788;9.214;2023-02-28T13:22:55;17.80;51.40
40816;DHT22;26535;48.788;9.214;2023-02-28T13:27:52;17.40;50.90
40816;DHT22;26535;48.788;9.214;2023-02-28T13:36:06;16.90;51.70
40816;DHT22;26535;48.788;9.214;2023-02-28T13:38:41;16.40;52.20
40816;DHT22;26535;48.788;9.214;2023-02-28T13:44:20;16.70;52.90
40816;DHT22;26535;48.788;9.214;2023-02-28T14:00:03;17.40;50.30
40816;DHT22;26535;48.788;9.214;2023-02-28T14:05:27;16.40;52.20
40816;DHT22;26535;48.788;9.214;2023-02-28T14:11:03;18.40;50.50
40816;DHT22;26535;48.788;9.214;2023-02-28T14:13:44;19.10;48.90
40816;DHT22;26535;48.788;9.214;2023-02-28T14:16:20;19.40;49.00
40816;DHT22;26535;48.788;9.214;2023-02-28T14:19:01;19.30;48.50
40816;DHT22;26535;48.788;9.214;2023-02-28T14:21:32;20.10;47.70
40816;DHT22;26535;48.788;9.214;2023-02-28T14:37:42;20.00;48.60
40816;DHT22;26535;48.788;9.214;2023-02-28T14:40:21;20.70;47.70
40816;DHT22;26535;48.788;9.214;2023-02-28T14:42:56;21.30;46.30
40816;DHT22;26535;48.788;9.214;2023-02-28T14:45:22;21.20;46.20
40816;DHT22;26535;48.788;9.214;2023-02-28T14:47:51;20.80;47.60
40816;DHT22;26535;48.788;9.214;2023-02-28T14:50:24;21.60;46.10
40816;DHT22;26535;48.788;9.214;2023-02-28T14:52:53;21.60;46.10
40816;DHT22;26535;48.788;9.214;2023-02-28T14:55:36;21.70;47.00
40816;DHT22;26535;48.788;9.214;2023-02-28T14:58:06;22.00;44.80
40816;DHT22;26535;48.788;9.214;2023-02-28T15:00:39;21.80;45.50
40816;DHT22;26535;48.788;9.214;2023-02-28T15:05:59;21.80;45.20
40816;DHT22;26535;48.788;9.214;2023-02-28T15:08:25;21.60;45.60
40816;DHT22;26535;48.788;9.214;2023-02-28T15:10:59;20.50;45.90
40816;DHT22;26535;48.788;9.214;2023-02-28T15:13:48;20.40;46.60
40816;DHT22;26535;48.788;9.214;2023-02-28T15:16:52;20.40;46.40
40816;DHT22;26535;48.788;9.214;2023-02-28T15:19:27;19.00;47.40
40816;DHT22;26535;48.788;9.214;2023-02-28T15:22:07;18.20;48.20
40816;DHT22;26535;48.788;9.214;2023-02-28T15:24:45;17.10;49.50
40816;DHT22;26535;48.788;9.214;2023-02-28T15:27:29;17.10;52.40
40816;DHT22;26535;48.788;9.214;2023-02-28T15:30:00;17.20;49.70
40816;DHT22;26535;48.788;9.214;2023-02-28T15:32:30;16.50;50.60
40816;DHT22;26535;48.788;9.214;2023-02-28T15:34:58;16.90;50.90
40816;DHT22;26535;48.788;9.214;2023-02-28T15:39:53;16.60;52.20
40816;DHT22;26535;48.788;9.214;2023-02-28T15:42:21;16.40;51.60
40816;DHT22;26535;48.788;9.214;2023-02-28T15:44:48;16.10;51.00
40816;DHT22;26535;48.788;9.214;2023-02-28T15:47:27;15.40;51.80
40816;DHT22;26535;48.788;9.214;2023-02-28T15:52:23;15.10;53.30
40816;DHT22;26535;48.788;9.214;2023-02-28T15:54:50;15.00;52.80
40816;DHT22;26535;48.788;9.214;2023-02-28T15:57:26;15.10;53.70
40816;DHT22;26535;48.788;9.214;2023-02-28T15:59:56;15.40;52.70
40816;DHT22;26535;48.788;9.214;2023-02-28T16:02:36;15.20;52.40
40816;DHT22;26535;48.788;9.214;2023-02-28T16:07:41;14.40;53.80
40816;DHT22;26535;48.788;9.214;2023-02-28T16:10:10;13.70;55.50
40816;DHT22;26535;48.788;9.214;2023-02-28T16:12:38;13.50;55.20
40816;DHT22;26535;48.788;9.214;2023-02-28T16:15:18;13.40;56.40
40816;DHT22;26535;48.788;9.214;2023-02-28T16:17:44;13.30;55.50
40816;DHT22;26535;48.788;9.214;2023-02-28T16:20:23;13.20;56.90
40816;DHT22;26535;48.788;9.214;2023-02-28T16:22:58;13.00;55.40
40816;DHT22;26535;48.788;9.214;2023-02-28T16:25:36;12.50;58.30
40816;DHT22;26535;48.788;9.214;2023-02-28T16:28:02;12.30;56.80
40816;DHT22;26535;48.788;9.214;2023-02-28T16:30:30;11.90;58.40
40816;DHT22;26535;48.788;9.214;2023-02-28T16:32:57;11.60;58.10
40816;DHT22;26535;48.788;9.214;2023-02-28T16:35:23;11.00;59.90
40816;DHT22;26535;48.788;9.214;2023-02-28T16:37:53;10.60;60.60
40816;DHT22;26535;48.788;9.214;2023-02-28T16:40:22;10.00;61.60
40816;DHT22;26535;48.788;9.214;2023-02-28T16:42:55;9.50;63.30
40816;DHT22;26535;48.788;9.214;2023-02-28T16:45:24;9.10;63.40
40816;DHT22;26535;48.788;9.214;2023-02-28T16:47:50;8.70;64.50
40816;DHT22;26535;48.788;9.214;2023-02-28T16:50:27;8.40;65.80
40816;DHT22;26535;48.788;9.214;2023-02-28T16:52:54;7.90;66.30
40816;DHT22;26535;48.788;9.214;2023-02-28T16:55:21;7.60;67.30
40816;DHT22;26535;48.788;9.214;2023-02-28T16:57:56;7.20;68.00
40816;DHT22;26535;48.788;9.214;2023-02-28T17:00:23;6.80;69.30
40816;DHT22;26535;48.788;9.214;2023-02-28T17:02:49;6.70;70.10
40816;DHT22;26535;48.788;9.214;2023-02-28T17:05:15;6.60;70.50
40816;DHT22;26535;48.788;9.214;2023-02-28T17:07:47;6.40;71.10
40816;DHT22;26535;48.788;9.214;2023-02-28T17:10:22;6.30;72.80
40816;DHT22;26535;48.788;9.214;2023-02-28T17:12:49;6.20;72.30
40816;DHT22;26535;48.788;9.214;2023-02-28T17:15:16;6.10;73.40
40816;DHT22;26535;48.788;9.214;2023-02-28T17:17:43;6.00;73.90
40816;DHT22;26535;48.788;9.214;2023-02-28T17:20:14;5.80;73.20
40816;DHT22;26535;48.788;9.214;2023-02-28T17:22:41;5.80;73.50
40816;DHT22;26535;48.788;9.214;2023-02-28T17:25:08;5.70;74.50
40816;DHT22;26535;48.788;9.214;2023-02-28T17:27:35;5.50;74.20
40816;DHT22;26535;48.788;9.214;2023-02-28T17:30:03;5.50;75.70
40816;DHT22;26535;48.788;9.214;2023-02-28T17:32:29;5.30;75.70
40816;DHT22;26535;48.788;9.214;2023-02-28T17:34:55;5.20;76.80
40816;DHT22;26535;48.788;9.214;2023-02-28T17:37:41;5.10;76.60
40816;DHT22;26535;48.788;9.214;2023-02-28T17:40:14;5.00;76.60
40816;DHT22;26535;48.788;9.214;2023-02-28T17:42:47;5.00;76.40
40816;DHT22;26535;48.788;9.214;2023-02-28T17:45:15;4.90;76.70
40816;DHT22;26535;48.788;9.214;2023-02-28T17:47:43;4.80;77.50
40816;DHT22;26535;48.788;9.214;2023-02-28T17:50:16;4.70;77.30
40816;DHT22;26535;48.788;9.214;2023-02-28T17:52:42;4.60;77.30
40816;DHT22;26535;48.788;9.214;2023-02-28T17:55:09;4.50;77.80
40816;DHT22;26535;48.788;9.214;2023-02-28T17:57:34;4.50;78.50
40816;DHT22;26535;48.788;9.214;2023-02-28T18:00:00;4.40;78.50
40816;DHT22;26535;48.788;9.214;2023-02-28T18:02:37;4.30;79.50
40816;DHT22;26535;48.788;9.214;2023-02-28T18:05:02;4.30;79.50
40816;DHT22;26535;48.788;9.214;2023-02-28T18:07:30;4.20;79.90
40816;DHT22;26535;48.788;9.214;2023-02-28T18:09:55;4.20;80.30
40816;DHT22;26535;48.788;9.214;2023-02-28T18:12:23;4.10;80.50
40816;DHT22;26535;48.788;9.214;2023-02-28T18:14:49;4.00;80.70
40816;DHT22;26535;48.788;9.214;2023-02-28T18:17:15;3.90;81.90
40816;DHT22;26535;48.788;9.214;2023-02-28T18:19:53;3.80;81.90
40816;DHT22;26535;48.788;9.214;2023-02-28T18:22:44;3.80;82.30
40816;DHT22;26535;48.788;9.214;2023-02-28T18:27:52;3.60;82.90
40816;DHT22;26535;48.788;9.214;2023-02-28T18:30:23;3.50;83.20
40816;DHT22;26535;48.788;9.214;2023-02-28T18:32:49;3.50;83.90
40816;DHT22;26535;48.788;9.214;2023-02-28T18:35:15;3.40;84.70
40816;DHT22;26535;48.788;9.214;2023-02-28T18:37:48;3.40;84.60
40816;DHT22;26535;48.788;9.214;2023-02-28T18:40:14;3.40;84.30
40816;DHT22;26535;48.788;9.214;2023-02-28T18:46:27;3.20;84.50
40816;DHT22;26535;48.788;9.214;2023-02-28T18:49:01;3.20;84.90
40816;DHT22;26535;48.788;9.214;2023-02-28T18:51:31;3.10;85.00
40816;DHT22;26535;48.788;9.214;2023-02-28T18:53:58;3.00;85.50
40816;DHT22;26535;48.788;9.214;2023-02-28T18:56:25;3.00;85.90
40816;DHT22;26535;48.788;9.214;2023-02-28T18:58:51;3.00;86.30
40816;DHT22;26535;48.788;9.214;2023-02-28T19:01:26;3.00;86.10
40816;DHT22;26535;48.788;9.214;2023-02-28T19:03:55;2.90;86.70
40816;DHT22;26535;48.788;9.214;2023-02-28T19:06:21;2.90;86.40
40816;DHT22;26535;48.788;9.214;2023-02-28T19:08:58;2.80;86.50
40816;DHT22;26535;48.788;9.214;2023-02-28T19:11:25;2.80;87.10
40816;DHT22;26535;48.788;9.214;2023-02-28T19:13:51;2.70;87.40
40816;DHT22;26535;48.788;9.214;2023-02-28T19:16:19;2.60;87.90
40816;DHT22;26535;48.788;9.214;2023-02-28T19:18:45;2.60;89.00
40816;DHT22;26535;48.788;9.214;2023-02-28T19:21:12;2.60;89.50
40816;DHT22;26535;48.788;9.214;2023-02-28T19:23:38;2.60;89.00
40816;DHT22;26535;48.788;9.214;2023-02-28T19:26:09;2.60;89.20
40816;DHT22;26535;48.788;9.214;2023-02-28T19:28:36;2.50;89.00
40816;DHT22;26535;48.788;9.214;2023-02-28T19:31:01;2.50;89.10
40816;DHT22;26535;48.788;9.214;2023-02-28T19:33:27;2.40;89.90
40816;DHT22;26535;48.788;9.214;2023-02-28T19:35:54;2.30;89.90
40816;DHT22;26535;48.788;9.214;2023-02-28T19:38:19;2.20;90.10
40816;DHT22;26535;48.788;9.214;2023-02-28T19:40:48;2.10;90.60
40816;DHT22;26535;48.788;9.214;2023-02-28T19:43:14;2.00;90.50
40816;DHT22;26535;48.788;9.214;2023-02-28T19:45:40;1.90;91.10
40816;DHT22;26535;48.788;9.214;2023-02-28T19:48:05;1.90;91.00
40816;DHT22;26535;48.788;9.214;2023-02-28T19:50:37;1.90;91.10
40816;DHT22;26535;48.788;9.214;2023-02-28T19:53:03;1.90;91.50
40816;DHT22;26535;48.788;9.214;2023-02-28T19:55:29;1.80;91.50
40816;DHT22;26535;48.788;9.214;2023-02-28T19:57:54;1.70;91.70
40816;DHT22;26535;48.788;9.214;2023-02-28T20:00:20;1.60;91.80
40816;DHT22;26535;48.788;9.214;2023-02-28T20:02:46;1.60;92.30
40816;DHT22;26535;48.788;9.214;2023-02-28T20:05:12;1.70;92.10
40816;DHT22;26535;48.788;9.214;2023-02-28T20:07:37;1.60;92.20
40816;DHT22;26535;48.788;9.214;2023-02-28T20:10:03;1.60;92.40
40816;DHT22;26535;48.788;9.214;2023-02-28T20:12:29;1.60;92.40
40816;DHT22;26535;48.788;9.214;2023-02-28T20:14:55;1.50;92.80
40816;DHT22;26535;48.788;9.214;2023-02-28T20:17:22;1.50;92.70
40816;DHT22;26535;48.788;9.214;2023-02-28T20:19:48;1.50;92.80
40816;DHT22;26535;48.788;9.214;2023-02-28T20:22:15;1.40;92.80
40816;DHT22;26535;48.788;9.214;2023-02-28T20:24:40;1.40;93.10
40816;DHT22;26535;48.788;9.214;2023-02-28T20:27:06;1.40;93.20
40816;DHT22;26535;48.788;9.214;2023-02-28T20:29:33;1.50;93.00
40816;DHT22;26535;48.788;9.214;2023-02-28T20:31:59;1.50;92.70
40816;DHT22;26535;48.788;9.214;2023-02-28T20:34:25;1.60;92.90
40816;DHT22;26535;48.788;9.214;2023-02-28T20:36:51;1.60;92.30
40816;DHT22;26535;48.788;9.214;2023-02-28T20:39:17;1.50;92.30
40816;DHT22;26535;48.788;9.214;2023-02-28T20:41:43;1.40;92.50
40816;DHT22;26535;48.788;9.214;2023-02-28T20:44:11;1.40;92.70
40816;DHT22;26535;48.788;9.214;2023-02-28T20:46:37;1.30;92.70
40816;DHT22;26535;48.788;9.214;2023-02-28T20:49:03;1.30;92.80
40816;DHT22;26535;48.788;9.214;2023-02-28T20:51:29;1.20;92.90
40816;DHT22;26535;48.788;9.214;2023-02-28T20:53:55;1.00;93.20
40816;DHT22;26535;48.788;9.214;2023-02-28T20:56:22;1.10;93.60
40816;DHT22;26535;48.788;9.214;2023-02-28T20:58:53;1.10;93.50
40816;DHT22;26535;48.788;9.214;2023-02-28T21:01:23;1.00;93.70
40816;DHT22;26535;48.788;9.214;2023-02-28T21:03:54;1.00;94.00
40816;DHT22;26535;48.788;9.214;2023-02-28T21:06:22;1.00;94.00
40816;DHT22;26535;48.788;9.214;2023-02-28T21:08:49;0.90;94.20
40816;DHT22;26535;48.788;9.214;2023-02-28T21:11:24;0.90;94.20
40816;DHT22;26535;48.788;9.214;2023-02-28T21:13:51;0.80;94.00
40816;DHT22;26535;48.788;9.214;2023-02-28T21:16:20;0.80;94.60
40816;DHT22;26535;48.788;9.214;2023-02-28T21:18:47;0.80;94.70
40816;DHT22;26535;48.788;9.214;2023-02-28T21:21:15;0.90;94.60
40816;DHT22;26535;48.788;9.214;2023-02-28T21:23:41;0.90;94.40
40816;DHT22;26535;48.788;9.214;2023-02-28T21:26:11;1.00;94.30
40816;DHT22;26535;48.788;9.214;2023-02-28T21:28:37;0.90;94.40
40816;DHT22;26535;48.788;9.214;2023-02-28T21:31:09;0.90;94.40
40816;DHT22;26535;48.788;9.214;2023-02-28T21:33:36;0.90;94.40
40816;DHT22;26535;48.788;9.214;2023-02-28T21:36:07;0.80;94.20
40816;DHT22;26535;48.788;9.214;2023-02-28T21:38:35;0.80;94.10
40816;DHT22;26535;48.788;9.214;2023-02-28T21:43:35;0.80;94.20
40816;DHT22;26535;48.788;9.214;2023-02-28T21:46:03;0.70;94.40
40816;DHT22;26535;48.788;9.214;2023-02-28T21:48:29;0.80;94.50
40816;DHT22;26535;48.788;9.214;2023-02-28T21:51:06;0.70;94.40
40816;DHT22;26535;48.788;9.214;2023-02-28T21:53:37;0.60;94.50
40816;DHT22;26535;48.788;9.214;2023-02-28T21:56:05;0.50;94.80
40816;DHT22;26535;48.788;9.214;2023-02-28T21:58:31;0.40;95.00
40816;DHT22;26535;48.788;9.214;2023-02-28T22:03:30;0.40;95.80
40816;DHT22;26535;48.788;9.214;2023-02-28T22:05:56;0.40;95.80
40816;DHT22;26535;48.788;9.214;2023-02-28T22:08:21;0.50;95.70
40816;DHT22;26535;48.788;9.214;2023-02-28T22:10:47;0.50;95.70
40816;DHT22;26535;48.788;9.214;2023-02-28T22:13:13;0.50;95.60
40816;DHT22;26535;48.788;9.214;2023-02-28T22:15:39;0.50;95.60
40816;DHT22;26535;48.788;9.214;2023-02-28T22:18:06;0.50;95.60
40816;DHT22;26535;48.788;9.214;2023-02-28T22:20:32;0.50;95.50
40816;DHT22;26535;48.788;9.214;2023-02-28T22:22:57;0.30;95.70
40816;DHT22;26535;48.788;9.214;2023-02-28T22:25:26;0.30;96.10
40816;DHT22;26535;48.788;9.214;2023-02-28T22:27:52;0.20;96.30
40816;DHT22;26535;48.788;9.214;2023-02-28T22:30:18;0.30;96.50
40816;DHT22;26535;48.788;9.214;2023-02-28T22:32:43;0.20;96.40
40816;DHT22;26535;48.788;9.214;2023-02-28T22:35:09;0.20;96.40
40816;DHT22;26535;48.788;9.214;2023-02-28T22:37:35;0.10;96.70
40816;DHT22;26535;48.788;9.214;2023-02-28T22:40:01;0.10;96.70
40816;DHT22;26535;48.788;9.214;2023-02-28T22:42:27;0.10;96.80
40816;DHT22;26535;48.788;9.214;2023-02-28T22:44:52;0.10;96.70
40816;DHT22;26535;48.788;9.214;2023-02-28T22:47:18;0.20;96.60
40816;DHT22;26535;48.788;9.214;2023-02-28T22:49:44;0.10;96.70
40816;DHT22;26535;48.788;9.214;2023-02-28T22:52:10;0.10;96.90
40816;DHT22;26535;48.788;9.214;2023-02-28T22:54:35;0.00;96.90
40816;DHT22;26535;48.788;9.214;2023-02-28T22:57:01;0.00;97.10
40816;DHT22;26535;48.788;9.214;2023-02-28T22:59:27;0.00;97.30
40816;DHT22;26535;48.788;9.214;2023-02-28T23:01:53;-0.10;97.30
40816;DHT22;26535;48.788;9.214;2023-02-28T23:04:18;-0.10;97.30
40816;DHT22;26535;48.788;9.214;2023-02-28T23:06:44;-0.20;97.40
40816;DHT22;26535;48.788;9.214;2023-02-28T23:09:15;-0.20;97.60
40816;DHT22;26535;48.788;9.214;2023-02-28T23:11:48;-0.30;97.90
40816;DHT22;26535;48.788;9.214;2023-02-28T23:14:15;-0.30;97.80
40816;DHT22;26535;48.788;9.214;2023-02-28T23:16:47;-0.30;98.10
40816;DHT22;26535;48.788;9.214;2023-02-28T23:21:45;-0.30;98.10
40816;DHT22;26535;48.788;9.214;2023-02-28T23:24:12;-0.30;98.30
40816;DHT22;26535;48.788;9.214;2023-02-28T23:26:40;-0.30;98.20
40816;DHT22;26535;48.788;9.214;2023-02-28T23:29:06;-0.30;98.30